sensor_id;sensor_type;location;lat;lon;timestamp;P1;durP1;ratioP1;P2;durP2;ratioP2
75655;SDS011;64252;51.094;13.714;2023-10-09T00:00:07;7.25;;;1.88;;
75655;SDS011;64252;51.094;13.714;2023-10-09T00:02:52;6.13;;;1.98;;
75655;SDS011;64252;51.094;13.714;2023-10-09T00:05:19;5.70;;;2.03;;
75655;SDS011;64252;51.094;13.714;2023-10-09T00:07:48;4.57;;;1.85;;
75655;SDS011;64252;51.094;13.714;2023-10-09T00:10:14;4.78;;;1.83;;
75655;SDS011;64252;51.094;13.714;2023-10-09T00:12:43;7.55;;;1.90;;
75655;SDS011;64252;51.094;13.714;2023-10-09T00:15:09;6.40;;;2.28;;
75655;SDS011;64252;51.094;13.714;2023-10-09T00:17:37;3.97;;;1.70;;
75655;SDS011;64252;51.094;13.714;2023-10-09T00:20:03;5.03;;;1.80;;
75655;SDS011;64252;51.094;13.714;2023-10-09T00:22:42;4.30;;;1.98;;
75655;SDS011;64252;51.094;13.714;2023-10-09T00:25:11;5.40;;;2.08;;
75655;SDS011;64252;51.094;13.714;2023-10-09T00:27:37;7.15;;;2.13;;
75655;SDS011;64252;51.094;13.714;2023-10-09T00:30:08;4.50;;;1.90;;
75655;SDS011;64252;51.094;13.714;2023-10-09T00:32:34;5.22;;;2.15;;
75655;SDS011;64252;51.094;13.714;2023-10-09T00:35:02;4.95;;;2.08;;
75655;SDS011;64252;51.094;13.714;2023-10-09T00:37:47;3.38;;;1.38;;
75655;SDS011;64252;51.094;13.714;2023-10-09T00:40:13;7.38;;;1.65;;
75655;SDS011;64252;51.094;13.714;2023-10-09T00:42:45;7.28;;;2.08;;
75655;SDS011;64252;51.094;13.714;2023-10-09T00:45:12;5.38;;;2.15;;
75655;SDS011;64252;51.094;13.714;2023-10-09T00:47:49;6.72;;;2.15;;
75655;SDS011;64252;51.094;13.714;2023-10-09T00:50:16;7.15;;;2.30;;
75655;SDS011;64252;51.094;13.714;2023-10-09T00:52:47;5.75;;;2.10;;
75655;SDS011;64252;51.094;13.714;2023-10-09T00:55:26;4.72;;;1.98;;
75655;SDS011;64252;51.094;13.714;2023-10-09T00:58:03;3.58;;;1.55;;
75655;SDS011;64252;51.094;13.714;2023-10-09T01:00:34;5.80;;;1.80;;
75655;SDS011;64252;51.094;13.714;2023-10-09T01:03:09;4.43;;;1.75;;
75655;SDS011;64252;51.094;13.714;2023-10-09T01:08:34;5.53;;;1.88;;
75655;SDS011;64252;51.094;13.714;2023-10-09T01:11:18;5.55;;;1.92;;
75655;SDS011;64252;51.094;13.714;2023-10-09T01:13:45;5.05;;;1.70;;
75655;SDS011;64252;51.094;13.714;2023-10-09T01:16:11;5.85;;;2.13;;
75655;SDS011;64252;51.094;13.714;2023-10-09T01:18:44;5.53;;;1.90;;
75655;SDS011;64252;51.094;13.714;2023-10-09T01:21:12;5.57;;;1.92;;
75655;SDS011;64252;51.094;13.714;2023-10-09T01:23:45;8.00;;;1.95;;
75655;SDS011;64252;51.094;13.714;2023-10-09T01:26:33;4.50;;;2.10;;
75655;SDS011;64252;51.094;13.714;2023-10-09T01:31:42;4.65;;;1.60;;
75655;SDS011;64252;51.094;13.714;2023-10-09T01:34:16;4.13;;;1.65;;
75655;SDS011;64252;51.094;13.714;2023-10-09T01:36:42;5.22;;;1.85;;
75655;SDS011;64252;51.094;13.714;2023-10-09T01:39:08;5.05;;;1.58;;
75655;SDS011;64252;51.094;13.714;2023-10-09T01:41:52;4.55;;;1.60;;
75655;SDS011;64252;51.094;13.714;2023-10-09T01:44:27;5.90;;;2.10;;
75655;SDS011;64252;51.094;13.714;2023-10-09T01:47:00;4.40;;;1.70;;
75655;SDS011;64252;51.094;13.714;2023-10-09T01:49:33;4.82;;;2.10;;
75655;SDS011;64252;51.094;13.714;2023-10-09T01:52:07;4.28;;;1.50;;
75655;SDS011;64252;51.094;13.714;2023-10-09T01:54:37;5.65;;;2.00;;
75655;SDS011;64252;51.094;13.714;2023-10-09T01:57:04;4.07;;;1.77;;
75655;SDS011;64252;51.094;13.714;2023-10-09T01:59:39;8.23;;;2.30;;
75655;SDS011;64252;51.094;13.714;2023-10-09T02:02:24;4.88;;;2.03;;
75655;SDS011;64252;51.094;13.714;2023-10-09T02:05:05;7.15;;;2.00;;
75655;SDS011;64252;51.094;13.714;2023-10-09T02:07:31;5.07;;;1.90;;
75655;SDS011;64252;51.094;13.714;2023-10-09T02:12:46;6.28;;;2.00;;
75655;SDS011;64252;51.094;13.714;2023-10-09T02:15:16;6.93;;;2.65;;
75655;SDS011;64252;51.094;13.714;2023-10-09T02:18:01;4.68;;;1.80;;
75655;SDS011;64252;51.094;13.714;2023-10-09T02:20:41;5.70;;;2.35;;
75655;SDS011;64252;51.094;13.714;2023-10-09T02:23:10;5.40;;;2.03;;
75655;SDS011;64252;51.094;13.714;2023-10-09T02:25:38;5.85;;;2.10;;
75655;SDS011;64252;51.094;13.714;2023-10-09T02:28:09;5.85;;;1.85;;
75655;SDS011;64252;51.094;13.714;2023-10-09T02:30:43;5.05;;;2.17;;
75655;SDS011;64252;51.094;13.714;2023-10-09T02:33:16;4.18;;;1.85;;
75655;SDS011;64252;51.094;13.714;2023-10-09T02:35:53;6.97;;;2.67;;
75655;SDS011;64252;51.094;13.714;2023-10-09T02:38:25;6.25;;;2.10;;
75655;SDS011;64252;51.094;13.714;2023-10-09T02:40:51;6.05;;;2.25;;
75655;SDS011;64252;51.094;13.714;2023-10-09T02:43:29;3.28;;;1.58;;
75655;SDS011;64252;51.094;13.714;2023-10-09T02:46:15;4.88;;;2.50;;
75655;SDS011;64252;51.094;13.714;2023-10-09T02:48:46;6.05;;;2.20;;
75655;SDS011;64252;51.094;13.714;2023-10-09T02:51:19;6.55;;;2.35;;
75655;SDS011;64252;51.094;13.714;2023-10-09T02:53:51;6.60;;;2.50;;
75655;SDS011;64252;51.094;13.714;2023-10-09T02:56:21;6.20;;;2.30;;
75655;SDS011;64252;51.094;13.714;2023-10-09T02:58:55;5.65;;;2.22;;
75655;SDS011;64252;51.094;13.714;2023-10-09T03:01:31;4.68;;;1.90;;
75655;SDS011;64252;51.094;13.714;2023-10-09T03:03:57;4.65;;;2.22;;
75655;SDS011;64252;51.094;13.714;2023-10-09T03:06:24;4.25;;;1.77;;
75655;SDS011;64252;51.094;13.714;2023-10-09T03:08:59;4.32;;;1.45;;
75655;SDS011;64252;51.094;13.714;2023-10-09T03:11:25;4.18;;;2.00;;
75655;SDS011;64252;51.094;13.714;2023-10-09T03:13:53;4.90;;;2.05;;
75655;SDS011;64252;51.094;13.714;2023-10-09T03:16:20;5.85;;;2.10;;
75655;SDS011;64252;51.094;13.714;2023-10-09T03:18:46;5.20;;;2.42;;
75655;SDS011;64252;51.094;13.714;2023-10-09T03:21:14;5.18;;;2.30;;
75655;SDS011;64252;51.094;13.714;2023-10-09T03:23:46;5.72;;;2.50;;
75655;SDS011;64252;51.094;13.714;2023-10-09T03:26:17;3.92;;;1.90;;
75655;SDS011;64252;51.094;13.714;2023-10-09T03:28:45;7.18;;;2.45;;
75655;SDS011;64252;51.094;13.714;2023-10-09T03:31:11;6.15;;;2.50;;
75655;SDS011;64252;51.094;13.714;2023-10-09T03:33:37;4.63;;;2.30;;
75655;SDS011;64252;51.094;13.714;2023-10-09T03:36:03;6.90;;;2.67;;
75655;SDS011;64252;51.094;13.714;2023-10-09T03:41:03;4.85;;;2.00;;
75655;SDS011;64252;51.094;13.714;2023-10-09T03:43:35;4.38;;;2.33;;
75655;SDS011;64252;51.094;13.714;2023-10-09T03:46:09;5.68;;;2.45;;
75655;SDS011;64252;51.094;13.714;2023-10-09T03:48:51;6.05;;;2.13;;
75655;SDS011;64252;51.094;13.714;2023-10-09T03:51:21;4.75;;;2.00;;
75655;SDS011;64252;51.094;13.714;2023-10-09T03:53:50;7.38;;;2.65;;
75655;SDS011;64252;51.094;13.714;2023-10-09T03:56:19;6.13;;;2.75;;
75655;SDS011;64252;51.094;13.714;2023-10-09T03:58:49;7.38;;;3.10;;
75655;SDS011;64252;51.094;13.714;2023-10-09T04:01:19;6.07;;;2.72;;
75655;SDS011;64252;51.094;13.714;2023-10-09T04:03:52;6.13;;;2.60;;
75655;SDS011;64252;51.094;13.714;2023-10-09T04:06:25;9.13;;;2.75;;
75655;SDS011;64252;51.094;13.714;2023-10-09T04:08:56;4.90;;;2.53;;
75655;SDS011;64252;51.094;13.714;2023-10-09T04:11:23;8.18;;;2.80;;
75655;SDS011;64252;51.094;13.714;2023-10-09T04:13:50;5.88;;;3.10;;
75655;SDS011;64252;51.094;13.714;2023-10-09T04:16:18;6.32;;;3.00;;
75655;SDS011;64252;51.094;13.714;2023-10-09T04:18:53;4.72;;;2.42;;
75655;SDS011;64252;51.094;13.714;2023-10-09T04:21:22;4.82;;;2.47;;
75655;SDS011;64252;51.094;13.714;2023-10-09T04:24:03;5.53;;;2.63;;
75655;SDS011;64252;51.094;13.714;2023-10-09T04:26:39;6.18;;;2.72;;
75655;SDS011;64252;51.094;13.714;2023-10-09T04:29:11;7.00;;;3.47;;
75655;SDS011;64252;51.094;13.714;2023-10-09T04:31:45;6.75;;;2.95;;
75655;SDS011;64252;51.094;13.714;2023-10-09T04:34:17;6.28;;;2.92;;
75655;SDS011;64252;51.094;13.714;2023-10-09T04:36:50;8.75;;;3.35;;
75655;SDS011;64252;51.094;13.714;2023-10-09T04:39:26;5.60;;;2.72;;
75655;SDS011;64252;51.094;13.714;2023-10-09T04:41:58;6.70;;;2.95;;
75655;SDS011;64252;51.094;13.714;2023-10-09T04:44:43;7.90;;;4.03;;
75655;SDS011;64252;51.094;13.714;2023-10-09T04:47:28;7.57;;;4.20;;
75655;SDS011;64252;51.094;13.714;2023-10-09T04:50:04;8.77;;;4.15;;
75655;SDS011;64252;51.094;13.714;2023-10-09T04:52:35;6.53;;;3.63;;
75655;SDS011;64252;51.094;13.714;2023-10-09T04:55:01;9.55;;;4.50;;
75655;SDS011;64252;51.094;13.714;2023-10-09T04:57:33;7.88;;;4.35;;
75655;SDS011;64252;51.094;13.714;2023-10-09T05:00:24;6.80;;;4.10;;
75655;SDS011;64252;51.094;13.714;2023-10-09T05:02:50;8.02;;;4.20;;
75655;SDS011;64252;51.094;13.714;2023-10-09T05:05:23;9.02;;;4.65;;
75655;SDS011;64252;51.094;13.714;2023-10-09T05:08:08;8.98;;;4.25;;
75655;SDS011;64252;51.094;13.714;2023-10-09T05:13:25;7.85;;;4.15;;
75655;SDS011;64252;51.094;13.714;2023-10-09T05:16:03;10.32;;;4.80;;
75655;SDS011;64252;51.094;13.714;2023-10-09T05:18:41;11.00;;;5.30;;
75655;SDS011;64252;51.094;13.714;2023-10-09T05:21:10;16.00;;;6.65;;
75655;SDS011;64252;51.094;13.714;2023-10-09T05:23:39;12.50;;;5.88;;
75655;SDS011;64252;51.094;13.714;2023-10-09T05:26:17;10.73;;;4.90;;
75655;SDS011;64252;51.094;13.714;2023-10-09T05:29:02;14.68;;;6.30;;
75655;SDS011;64252;51.094;13.714;2023-10-09T05:31:47;11.32;;;5.43;;
75655;SDS011;64252;51.094;13.714;2023-10-09T05:34:28;10.88;;;5.75;;
75655;SDS011;64252;51.094;13.714;2023-10-09T05:37:13;10.32;;;6.25;;
75655;SDS011;64252;51.094;13.714;2023-10-09T05:39:45;9.95;;;5.53;;
75655;SDS011;64252;51.094;13.714;2023-10-09T05:45:05;8.70;;;4.32;;
75655;SDS011;64252;51.094;13.714;2023-10-09T05:47:51;12.13;;;5.75;;
75655;SDS011;64252;51.094;13.714;2023-10-09T05:50:37;9.85;;;4.82;;
75655;SDS011;64252;51.094;13.714;2023-10-09T05:53:21;10.02;;;5.80;;
75655;SDS011;64252;51.094;13.714;2023-10-09T05:56:05;12.25;;;6.55;;
75655;SDS011;64252;51.094;13.714;2023-10-09T05:58:49;8.75;;;5.47;;
75655;SDS011;64252;51.094;13.714;2023-10-09T06:01:33;10.60;;;5.10;;
75655;SDS011;64252;51.094;13.714;2023-10-09T06:04:17;10.40;;;5.43;;
75655;SDS011;64252;51.094;13.714;2023-10-09T06:06:45;10.15;;;5.13;;
75655;SDS011;64252;51.094;13.714;2023-10-09T06:09:14;10.52;;;5.68;;
75655;SDS011;64252;51.094;13.714;2023-10-09T06:11:44;9.60;;;5.68;;
75655;SDS011;64252;51.094;13.714;2023-10-09T06:14:20;8.95;;;4.78;;
75655;SDS011;64252;51.094;13.714;2023-10-09T06:16:55;10.98;;;5.05;;
75655;SDS011;64252;51.094;13.714;2023-10-09T06:19:22;10.43;;;4.32;;
75655;SDS011;64252;51.094;13.714;2023-10-09T06:21:52;8.70;;;4.95;;
75655;SDS011;64252;51.094;13.714;2023-10-09T06:24:40;9.80;;;5.53;;
75655;SDS011;64252;51.094;13.714;2023-10-09T06:27:20;11.70;;;5.55;;
75655;SDS011;64252;51.094;13.714;2023-10-09T06:29:51;10.15;;;6.00;;
75655;SDS011;64252;51.094;13.714;2023-10-09T06:32:23;9.02;;;5.75;;
75655;SDS011;64252;51.094;13.714;2023-10-09T06:37:18;11.57;;;5.80;;
75655;SDS011;64252;51.094;13.714;2023-10-09T06:39:50;10.30;;;6.00;;
75655;SDS011;64252;51.094;13.714;2023-10-09T06:42:26;10.95;;;5.55;;
75655;SDS011;64252;51.094;13.714;2023-10-09T06:45:20;13.02;;;6.90;;
75655;SDS011;64252;51.094;13.714;2023-10-09T06:47:46;11.65;;;5.45;;
75655;SDS011;64252;51.094;13.714;2023-10-09T06:53:19;8.77;;;4.93;;
75655;SDS011;64252;51.094;13.714;2023-10-09T06:55:45;10.95;;;5.82;;
75655;SDS011;64252;51.094;13.714;2023-10-09T07:00:48;10.00;;;5.20;;
75655;SDS011;64252;51.094;13.714;2023-10-09T07:03:24;11.07;;;5.47;;
75655;SDS011;64252;51.094;13.714;2023-10-09T07:06:17;10.75;;;6.40;;
75655;SDS011;64252;51.094;13.714;2023-10-09T07:08:52;11.27;;;6.60;;
75655;SDS011;64252;51.094;13.714;2023-10-09T07:11:48;13.52;;;6.40;;
75655;SDS011;64252;51.094;13.714;2023-10-09T07:14:15;13.55;;;7.55;;
75655;SDS011;64252;51.094;13.714;2023-10-09T07:17:01;11.13;;;6.20;;
75655;SDS011;64252;51.094;13.714;2023-10-09T07:19:47;10.75;;;6.32;;
75655;SDS011;64252;51.094;13.714;2023-10-09T07:22:14;10.50;;;5.72;;
75655;SDS011;64252;51.094;13.714;2023-10-09T07:24:48;11.65;;;5.90;;
75655;SDS011;64252;51.094;13.714;2023-10-09T07:27:19;11.48;;;6.75;;
75655;SDS011;64252;51.094;13.714;2023-10-09T07:30:06;16.55;;;8.05;;
75655;SDS011;64252;51.094;13.714;2023-10-09T07:33:00;11.93;;;7.22;;
75655;SDS011;64252;51.094;13.714;2023-10-09T07:35:37;13.07;;;6.90;;
75655;SDS011;64252;51.094;13.714;2023-10-09T07:38:09;11.40;;;6.32;;
75655;SDS011;64252;51.094;13.714;2023-10-09T07:40:36;10.98;;;6.28;;
75655;SDS011;64252;51.094;13.714;2023-10-09T07:43:24;12.40;;;6.65;;
75655;SDS011;64252;51.094;13.714;2023-10-09T07:46:03;9.10;;;6.10;;
75655;SDS011;64252;51.094;13.714;2023-10-09T07:48:47;11.20;;;6.55;;
75655;SDS011;64252;51.094;13.714;2023-10-09T07:51:19;14.73;;;7.32;;
75655;SDS011;64252;51.094;13.714;2023-10-09T07:53:51;14.15;;;7.63;;
75655;SDS011;64252;51.094;13.714;2023-10-09T07:56:38;10.30;;;6.30;;
75655;SDS011;64252;51.094;13.714;2023-10-09T07:59:16;11.68;;;6.05;;
75655;SDS011;64252;51.094;13.714;2023-10-09T08:01:48;10.98;;;5.95;;
75655;SDS011;64252;51.094;13.714;2023-10-09T08:04:26;11.90;;;6.85;;
75655;SDS011;64252;51.094;13.714;2023-10-09T08:07:11;13.48;;;6.45;;
75655;SDS011;64252;51.094;13.714;2023-10-09T08:09:51;11.57;;;7.38;;
75655;SDS011;64252;51.094;13.714;2023-10-09T08:12:35;16.95;;;8.45;;
75655;SDS011;64252;51.094;13.714;2023-10-09T08:15:23;10.63;;;6.13;;
75655;SDS011;64252;51.094;13.714;2023-10-09T08:18:00;12.27;;;6.40;;
75655;SDS011;64252;51.094;13.714;2023-10-09T08:20:35;12.27;;;7.35;;
75655;SDS011;64252;51.094;13.714;2023-10-09T08:26:14;14.32;;;7.68;;
75655;SDS011;64252;51.094;13.714;2023-10-09T08:28:57;16.83;;;9.05;;
75655;SDS011;64252;51.094;13.714;2023-10-09T08:31:42;11.48;;;6.85;;
75655;SDS011;64252;51.094;13.714;2023-10-09T08:34:14;15.18;;;8.18;;
75655;SDS011;64252;51.094;13.714;2023-10-09T08:36:50;14.63;;;9.07;;
75655;SDS011;64252;51.094;13.714;2023-10-09T08:41:52;15.43;;;8.60;;
75655;SDS011;64252;51.094;13.714;2023-10-09T08:44:23;13.88;;;7.82;;
75655;SDS011;64252;51.094;13.714;2023-10-09T08:46:56;16.30;;;7.93;;
75655;SDS011;64252;51.094;13.714;2023-10-09T08:49:24;17.50;;;8.55;;
75655;SDS011;64252;51.094;13.714;2023-10-09T08:51:51;17.73;;;8.40;;
75655;SDS011;64252;51.094;13.714;2023-10-09T08:54:20;19.40;;;10.13;;
75655;SDS011;64252;51.094;13.714;2023-10-09T08:56:46;16.02;;;8.57;;
75655;SDS011;64252;51.094;13.714;2023-10-09T08:59:15;21.65;;;9.45;;
75655;SDS011;64252;51.094;13.714;2023-10-09T09:01:44;15.95;;;8.00;;
75655;SDS011;64252;51.094;13.714;2023-10-09T09:04:33;17.20;;;7.90;;
75655;SDS011;64252;51.094;13.714;2023-10-09T09:07:05;19.25;;;8.25;;
75655;SDS011;64252;51.094;13.714;2023-10-09T09:09:54;18.95;;;8.43;;
75655;SDS011;64252;51.094;13.714;2023-10-09T09:12:25;16.70;;;7.70;;
75655;SDS011;64252;51.094;13.714;2023-10-09T09:14:55;15.88;;;7.47;;
75655;SDS011;64252;51.094;13.714;2023-10-09T09:17:23;14.27;;;6.53;;
75655;SDS011;64252;51.094;13.714;2023-10-09T09:19:55;15.98;;;7.70;;
75655;SDS011;64252;51.094;13.714;2023-10-09T09:22:22;16.33;;;7.40;;
75655;SDS011;64252;51.094;13.714;2023-10-09T09:24:58;18.90;;;9.02;;
75655;SDS011;64252;51.094;13.714;2023-10-09T09:27:46;19.67;;;8.45;;
75655;SDS011;64252;51.094;13.714;2023-10-09T09:30:26;19.23;;;7.65;;
75655;SDS011;64252;51.094;13.714;2023-10-09T09:38:26;18.98;;;8.68;;
75655;SDS011;64252;51.094;13.714;2023-10-09T09:40:54;17.27;;;8.27;;
75655;SDS011;64252;51.094;13.714;2023-10-09T09:43:22;13.63;;;6.75;;
75655;SDS011;64252;51.094;13.714;2023-10-09T09:45:48;16.20;;;7.07;;
75655;SDS011;64252;51.094;13.714;2023-10-09T09:48:17;16.27;;;7.53;;
75655;SDS011;64252;51.094;13.714;2023-10-09T09:50:42;16.05;;;7.63;;
75655;SDS011;64252;51.094;13.714;2023-10-09T09:53:12;15.25;;;7.53;;
75655;SDS011;64252;51.094;13.714;2023-10-09T09:55:50;17.98;;;7.43;;
75655;SDS011;64252;51.094;13.714;2023-10-09T09:58:26;13.23;;;6.90;;
75655;SDS011;64252;51.094;13.714;2023-10-09T10:01:08;14.98;;;6.95;;
75655;SDS011;64252;51.094;13.714;2023-10-09T10:03:58;13.48;;;7.55;;
75655;SDS011;64252;51.094;13.714;2023-10-09T10:06:26;16.05;;;6.22;;
75655;SDS011;64252;51.094;13.714;2023-10-09T10:08:57;12.38;;;5.55;;
75655;SDS011;64252;51.094;13.714;2023-10-09T10:14:09;14.05;;;6.10;;
75655;SDS011;64252;51.094;13.714;2023-10-09T10:22:26;11.68;;;5.80;;
75655;SDS011;64252;51.094;13.714;2023-10-09T10:24:58;16.33;;;6.60;;
75655;SDS011;64252;51.094;13.714;2023-10-09T10:27:28;13.27;;;6.22;;
75655;SDS011;64252;51.094;13.714;2023-10-09T10:35:17;15.25;;;6.78;;
75655;SDS011;64252;51.094;13.714;2023-10-09T10:37:46;14.32;;;5.78;;
75655;SDS011;64252;51.094;13.714;2023-10-09T10:40:27;10.10;;;5.13;;
75655;SDS011;64252;51.094;13.714;2023-10-09T10:43:20;11.32;;;5.43;;
75655;SDS011;64252;51.094;13.714;2023-10-09T10:48:43;14.15;;;8.35;;
75655;SDS011;64252;51.094;13.714;2023-10-09T10:51:15;10.73;;;5.35;;
75655;SDS011;64252;51.094;13.714;2023-10-09T10:53:50;14.77;;;7.43;;
75655;SDS011;64252;51.094;13.714;2023-10-09T10:56:22;15.25;;;6.82;;
75655;SDS011;64252;51.094;13.714;2023-10-09T10:58:59;13.55;;;6.78;;
75655;SDS011;64252;51.094;13.714;2023-10-09T11:01:31;10.98;;;6.10;;
75655;SDS011;64252;51.094;13.714;2023-10-09T11:04:16;12.60;;;5.25;;
75655;SDS011;64252;51.094;13.714;2023-10-09T11:06:56;13.15;;;6.10;;
75655;SDS011;64252;51.094;13.714;2023-10-09T11:15:30;13.30;;;6.68;;
75655;SDS011;64252;51.094;13.714;2023-10-09T11:18:09;14.80;;;8.23;;
75655;SDS011;64252;51.094;13.714;2023-10-09T11:21:19;11.68;;;6.18;;
75655;SDS011;64252;51.094;13.714;2023-10-09T11:23:40;10.05;;;5.65;;
75655;SDS011;64252;51.094;13.714;2023-10-09T11:26:15;10.13;;;5.13;;
75655;SDS011;64252;51.094;13.714;2023-10-09T11:32:06;11.57;;;5.78;;
75655;SDS011;64252;51.094;13.714;2023-10-09T11:34:43;11.27;;;4.97;;
75655;SDS011;64252;51.094;13.714;2023-10-09T11:37:17;12.77;;;5.25;;
75655;SDS011;64252;51.094;13.714;2023-10-09T11:40:05;10.32;;;5.25;;
75655;SDS011;64252;51.094;13.714;2023-10-09T11:42:49;10.20;;;5.25;;
75655;SDS011;64252;51.094;13.714;2023-10-09T11:47:55;12.82;;;6.15;;
75655;SDS011;64252;51.094;13.714;2023-10-09T11:50:46;17.20;;;6.00;;
75655;SDS011;64252;51.094;13.714;2023-10-09T11:53:42;16.13;;;7.15;;
75655;SDS011;64252;51.094;13.714;2023-10-09T11:56:11;16.98;;;7.03;;
75655;SDS011;64252;51.094;13.714;2023-10-09T11:58:52;12.88;;;7.03;;
75655;SDS011;64252;51.094;13.714;2023-10-09T12:01:18;15.10;;;7.95;;
75655;SDS011;64252;51.094;13.714;2023-10-09T12:03:48;16.88;;;7.00;;
75655;SDS011;64252;51.094;13.714;2023-10-09T12:06:16;11.75;;;6.53;;
75655;SDS011;64252;51.094;13.714;2023-10-09T12:08:44;15.15;;;6.10;;
75655;SDS011;64252;51.094;13.714;2023-10-09T12:11:13;12.70;;;6.95;;
75655;SDS011;64252;51.094;13.714;2023-10-09T12:13:41;12.57;;;6.22;;
75655;SDS011;64252;51.094;13.714;2023-10-09T12:16:10;13.57;;;5.70;;
75655;SDS011;64252;51.094;13.714;2023-10-09T12:18:36;13.38;;;5.57;;
75655;SDS011;64252;51.094;13.714;2023-10-09T12:21:04;11.30;;;5.55;;
75655;SDS011;64252;51.094;13.714;2023-10-09T12:23:31;11.23;;;5.72;;
75655;SDS011;64252;51.094;13.714;2023-10-09T12:26:05;13.77;;;5.75;;
75655;SDS011;64252;51.094;13.714;2023-10-09T12:28:39;9.95;;;4.70;;
75655;SDS011;64252;51.094;13.714;2023-10-09T12:31:14;12.65;;;6.07;;
75655;SDS011;64252;51.094;13.714;2023-10-09T12:33:40;11.30;;;5.35;;
75655;SDS011;64252;51.094;13.714;2023-10-09T12:36:06;10.02;;;5.05;;
75655;SDS011;64252;51.094;13.714;2023-10-09T12:38:42;9.32;;;4.78;;
75655;SDS011;64252;51.094;13.714;2023-10-09T12:41:11;11.43;;;4.78;;
75655;SDS011;64252;51.094;13.714;2023-10-09T12:43:50;11.85;;;5.63;;
75655;SDS011;64252;51.094;13.714;2023-10-09T12:46:17;11.40;;;4.57;;
75655;SDS011;64252;51.094;13.714;2023-10-09T12:48:48;10.90;;;4.80;;
75655;SDS011;64252;51.094;13.714;2023-10-09T12:51:14;11.98;;;5.10;;
75655;SDS011;64252;51.094;13.714;2023-10-09T12:53:43;14.73;;;5.38;;
75655;SDS011;64252;51.094;13.714;2023-10-09T12:56:11;9.15;;;4.63;;
75655;SDS011;64252;51.094;13.714;2023-10-09T12:58:37;10.30;;;5.40;;
75655;SDS011;64252;51.094;13.714;2023-10-09T13:01:03;10.65;;;5.22;;
75655;SDS011;64252;51.094;13.714;2023-10-09T13:03:40;12.45;;;5.50;;
75655;SDS011;64252;51.094;13.714;2023-10-09T13:06:05;15.57;;;6.90;;
75655;SDS011;64252;51.094;13.714;2023-10-09T13:08:37;12.57;;;6.60;;
75655;SDS011;64252;51.094;13.714;2023-10-09T13:11:06;11.75;;;5.60;;
75655;SDS011;64252;51.094;13.714;2023-10-09T13:13:40;11.70;;;4.95;;
75655;SDS011;64252;51.094;13.714;2023-10-09T13:16:12;12.57;;;5.50;;
75655;SDS011;64252;51.094;13.714;2023-10-09T13:18:46;9.20;;;4.82;;
75655;SDS011;64252;51.094;13.714;2023-10-09T13:21:18;11.13;;;5.43;;
75655;SDS011;64252;51.094;13.714;2023-10-09T13:23:45;9.80;;;5.47;;
75655;SDS011;64252;51.094;13.714;2023-10-09T13:26:16;9.38;;;4.68;;
75655;SDS011;64252;51.094;13.714;2023-10-09T13:28:46;10.25;;;4.63;;
75655;SDS011;64252;51.094;13.714;2023-10-09T13:31:16;8.40;;;4.65;;
75655;SDS011;64252;51.094;13.714;2023-10-09T13:33:42;8.07;;;4.43;;
75655;SDS011;64252;51.094;13.714;2023-10-09T13:36:09;11.20;;;5.20;;
75655;SDS011;64252;51.094;13.714;2023-10-09T13:38:54;9.30;;;4.68;;
75655;SDS011;64252;51.094;13.714;2023-10-09T13:43:46;9.65;;;4.93;;
75655;SDS011;64252;51.094;13.714;2023-10-09T13:46:12;7.43;;;4.50;;
75655;SDS011;64252;51.094;13.714;2023-10-09T13:48:42;10.23;;;5.80;;
75655;SDS011;64252;51.094;13.714;2023-10-09T13:51:11;9.25;;;5.45;;
75655;SDS011;64252;51.094;13.714;2023-10-09T13:56:19;8.10;;;4.90;;
75655;SDS011;64252;51.094;13.714;2023-10-09T13:58:46;11.82;;;4.45;;
75655;SDS011;64252;51.094;13.714;2023-10-09T14:01:14;8.75;;;4.38;;
75655;SDS011;64252;51.094;13.714;2023-10-09T14:03:58;8.50;;;5.00;;
75655;SDS011;64252;51.094;13.714;2023-10-09T14:06:26;7.82;;;4.75;;
75655;SDS011;64252;51.094;13.714;2023-10-09T14:09:04;10.45;;;5.00;;
75655;SDS011;64252;51.094;13.714;2023-10-09T14:11:31;7.57;;;4.43;;
75655;SDS011;64252;51.094;13.714;2023-10-09T14:13:57;6.47;;;3.97;;
75655;SDS011;64252;51.094;13.714;2023-10-09T14:16:26;9.57;;;4.63;;
75655;SDS011;64252;51.094;13.714;2023-10-09T14:18:53;10.27;;;5.15;;
75655;SDS011;64252;51.094;13.714;2023-10-09T14:21:29;8.32;;;4.25;;
75655;SDS011;64252;51.094;13.714;2023-10-09T14:23:58;8.00;;;4.63;;
75655;SDS011;64252;51.094;13.714;2023-10-09T14:26:27;8.05;;;4.57;;
75655;SDS011;64252;51.094;13.714;2023-10-09T14:28:54;8.50;;;4.55;;
75655;SDS011;64252;51.094;13.714;2023-10-09T14:33:55;11.45;;;6.35;;
75655;SDS011;64252;51.094;13.714;2023-10-09T14:36:22;12.50;;;5.00;;
75655;SDS011;64252;51.094;13.714;2023-10-09T14:38:50;9.13;;;5.00;;
75655;SDS011;64252;51.094;13.714;2023-10-09T14:41:20;10.07;;;4.97;;
75655;SDS011;64252;51.094;13.714;2023-10-09T14:43:48;8.25;;;4.38;;
75655;SDS011;64252;51.094;13.714;2023-10-09T14:46:15;6.60;;;3.92;;
75655;SDS011;64252;51.094;13.714;2023-10-09T14:48:41;6.60;;;3.58;;
75655;SDS011;64252;51.094;13.714;2023-10-09T14:51:11;5.22;;;2.90;;
75655;SDS011;64252;51.094;13.714;2023-10-09T14:53:38;4.95;;;2.63;;
75655;SDS011;64252;51.094;13.714;2023-10-09T14:56:05;4.75;;;2.25;;
75655;SDS011;64252;51.094;13.714;2023-10-09T14:58:34;5.50;;;2.42;;
75655;SDS011;64252;51.094;13.714;2023-10-09T15:01:08;4.25;;;2.38;;
75655;SDS011;64252;51.094;13.714;2023-10-09T15:03:40;5.45;;;2.40;;
75655;SDS011;64252;51.094;13.714;2023-10-09T15:06:07;4.28;;;1.92;;
75655;SDS011;64252;51.094;13.714;2023-10-09T15:08:36;4.88;;;2.35;;
75655;SDS011;64252;51.094;13.714;2023-10-09T15:11:01;3.85;;;2.00;;
75655;SDS011;64252;51.094;13.714;2023-10-09T15:13:27;4.10;;;1.98;;
75655;SDS011;64252;51.094;13.714;2023-10-09T15:15:55;4.13;;;1.85;;
75655;SDS011;64252;51.094;13.714;2023-10-09T15:18:21;5.25;;;2.17;;
75655;SDS011;64252;51.094;13.714;2023-10-09T15:20:47;4.80;;;2.28;;
75655;SDS011;64252;51.094;13.714;2023-10-09T15:23:14;6.90;;;3.20;;
75655;SDS011;64252;51.094;13.714;2023-10-09T15:25:40;5.88;;;2.58;;
75655;SDS011;64252;51.094;13.714;2023-10-09T15:28:08;5.15;;;2.22;;
75655;SDS011;64252;51.094;13.714;2023-10-09T15:30:35;4.82;;;2.25;;
75655;SDS011;64252;51.094;13.714;2023-10-09T15:33:06;6.85;;;3.47;;
75655;SDS011;64252;51.094;13.714;2023-10-09T15:35:33;4.63;;;2.50;;
75655;SDS011;64252;51.094;13.714;2023-10-09T15:38:02;3.80;;;2.10;;
75655;SDS011;64252;51.094;13.714;2023-10-09T15:40:31;3.75;;;2.00;;
75655;SDS011;64252;51.094;13.714;2023-10-09T15:43:01;3.58;;;1.80;;
75655;SDS011;64252;51.094;13.714;2023-10-09T15:45:30;3.45;;;1.83;;
75655;SDS011;64252;51.094;13.714;2023-10-09T15:47:57;3.60;;;2.00;;
75655;SDS011;64252;51.094;13.714;2023-10-09T15:50:29;3.63;;;1.98;;
75655;SDS011;64252;51.094;13.714;2023-10-09T15:52:59;3.70;;;1.83;;
75655;SDS011;64252;51.094;13.714;2023-10-09T15:55:27;3.70;;;1.90;;
75655;SDS011;64252;51.094;13.714;2023-10-09T15:57:53;3.45;;;1.92;;
75655;SDS011;64252;51.094;13.714;2023-10-09T16:00:20;4.55;;;2.50;;
75655;SDS011;64252;51.094;13.714;2023-10-09T16:02:47;3.70;;;2.00;;
75655;SDS011;64252;51.094;13.714;2023-10-09T16:05:14;3.92;;;1.83;;
75655;SDS011;64252;51.094;13.714;2023-10-09T16:07:41;3.40;;;1.90;;
75655;SDS011;64252;51.094;13.714;2023-10-09T16:10:08;7.55;;;2.47;;
75655;SDS011;64252;51.094;13.714;2023-10-09T16:12:37;4.55;;;2.35;;